sensor_id;sensor_type;location;lat;lon;timestamp;P1;durP1;ratioP1;P2;durP2;ratioP2
22078;SDS011;11206;57.696;11.944;2022-08-04T00:00:25;8.80;;;1.63;;
22078;SDS011;11206;57.696;11.944;2022-08-04T00:10:31;13.95;;;2.28;;
22078;SDS011;11206;57.696;11.944;2022-08-04T00:13:01;11.45;;;2.00;;
22078;SDS011;11206;57.696;11.944;2022-08-04T00:15:28;5.95;;;1.63;;
22078;SDS011;11206;57.696;11.944;2022-08-04T00:18:07;10.85;;;1.92;;
22078;SDS011;11206;57.696;11.944;2022-08-04T00:20:33;11.35;;;1.63;;
22078;SDS011;11206;57.696;11.944;2022-08-04T00:23:02;8.30;;;2.13;;
22078;SDS011;11206;57.696;11.944;2022-08-04T00:25:30;12.38;;;2.80;;
22078;SDS011;11206;57.696;11.944;2022-08-04T00:27:56;10.57;;;1.52;;
22078;SDS011;11206;57.696;11.944;2022-08-04T00:30:25;4.20;;;1.52;;
22078;SDS011;11206;57.696;11.944;2022-08-04T00:32:51;25.10;;;6.35;;
22078;SDS011;11206;57.696;11.944;2022-08-04T00:35:17;15.73;;;2.88;;
22078;SDS011;11206;57.696;11.944;2022-08-04T00:37:44;10.43;;;1.90;;
22078;SDS011;11206;57.696;11.944;2022-08-04T00:43:02;7.85;;;1.80;;
22078;SDS011;11206;57.696;11.944;2022-08-04T00:53:12;8.85;;;1.60;;
22078;SDS011;11206;57.696;11.944;2022-08-04T00:55:43;14.35;;;2.08;;
22078;SDS011;11206;57.696;11.944;2022-08-04T01:00:45;9.32;;;1.73;;
22078;SDS011;11206;57.696;11.944;2022-08-04T01:03:13;11.57;;;1.60;;
22078;SDS011;11206;57.696;11.944;2022-08-04T01:05:53;9.80;;;1.83;;
22078;SDS011;11206;57.696;11.944;2022-08-04T01:15:53;9.63;;;1.45;;
22078;SDS011;11206;57.696;11.944;2022-08-04T01:29:02;7.88;;;2.03;;
22078;SDS011;11206;57.696;11.944;2022-08-04T01:31:34;12.13;;;1.88;;
22078;SDS011;11206;57.696;11.944;2022-08-04T01:34:00;9.13;;;2.08;;
22078;SDS011;11206;57.696;11.944;2022-08-04T01:36:33;5.35;;;1.63;;
22078;SDS011;11206;57.696;11.944;2022-08-04T01:39:00;2.97;;;1.30;;
22078;SDS011;11206;57.696;11.944;2022-08-04T01:41:49;17.00;;;2.05;;
22078;SDS011;11206;57.696;11.944;2022-08-04T01:44:16;9.48;;;1.77;;
22078;SDS011;11206;57.696;11.944;2022-08-04T01:46:45;4.88;;;1.30;;
22078;SDS011;11206;57.696;11.944;2022-08-04T01:49:11;13.48;;;2.22;;
22078;SDS011;11206;57.696;11.944;2022-08-04T01:51:39;6.30;;;1.90;;
22078;SDS011;11206;57.696;11.944;2022-08-04T01:54:05;10.25;;;1.83;;
22078;SDS011;11206;57.696;11.944;2022-08-04T01:56:32;7.57;;;1.92;;
22078;SDS011;11206;57.696;11.944;2022-08-04T01:58:58;14.00;;;1.80;;
22078;SDS011;11206;57.696;11.944;2022-08-04T02:01:24;14.80;;;2.03;;
22078;SDS011;11206;57.696;11.944;2022-08-04T02:03:50;7.75;;;1.80;;
22078;SDS011;11206;57.696;11.944;2022-08-04T02:08:50;10.20;;;1.77;;
22078;SDS011;11206;57.696;11.944;2022-08-04T02:11:20;7.72;;;1.75;;
22078;SDS011;11206;57.696;11.944;2022-08-04T02:13:57;14.88;;;2.17;;
22078;SDS011;11206;57.696;11.944;2022-08-04T02:19:13;11.60;;;2.03;;
22078;SDS011;11206;57.696;11.944;2022-08-04T02:21:41;11.75;;;1.98;;
22078;SDS011;11206;57.696;11.944;2022-08-04T02:24:11;12.43;;;2.33;;
22078;SDS011;11206;57.696;11.944;2022-08-04T02:26:40;13.90;;;2.75;;
22078;SDS011;11206;57.696;11.944;2022-08-04T02:29:12;10.57;;;2.08;;
22078;SDS011;11206;57.696;11.944;2022-08-04T02:31:52;10.75;;;1.98;;
22078;SDS011;11206;57.696;11.944;2022-08-04T02:34:29;6.22;;;1.67;;
22078;SDS011;11206;57.696;11.944;2022-08-04T02:36:56;12.95;;;2.08;;
22078;SDS011;11206;57.696;11.944;2022-08-04T02:39:25;9.23;;;2.10;;
22078;SDS011;11206;57.696;11.944;2022-08-04T02:41:53;12.88;;;1.80;;
22078;SDS011;11206;57.696;11.944;2022-08-04T02:44:21;13.70;;;2.20;;
22078;SDS011;11206;57.696;11.944;2022-08-04T02:46:49;20.05;;;2.33;;
22078;SDS011;11206;57.696;11.944;2022-08-04T02:49:16;9.80;;;2.20;;
22078;SDS011;11206;57.696;11.944;2022-08-04T02:51:48;8.90;;;1.45;;
22078;SDS011;11206;57.696;11.944;2022-08-04T02:54:15;8.98;;;1.60;;
22078;SDS011;11206;57.696;11.944;2022-08-04T02:56:42;14.77;;;2.00;;
22078;SDS011;11206;57.696;11.944;2022-08-04T02:59:11;10.90;;;2.28;;
22078;SDS011;11206;57.696;11.944;2022-08-04T03:01:38;5.63;;;1.60;;
22078;SDS011;11206;57.696;11.944;2022-08-04T03:11:55;10.90;;;1.80;;
22078;SDS011;11206;57.696;11.944;2022-08-04T03:25:10;9.70;;;1.90;;
22078;SDS011;11206;57.696;11.944;2022-08-04T03:30:18;11.77;;;1.50;;
22078;SDS011;11206;57.696;11.944;2022-08-04T03:33:00;10.50;;;2.15;;
22078;SDS011;11206;57.696;11.944;2022-08-04T03:35:40;7.35;;;1.92;;
22078;SDS011;11206;57.696;11.944;2022-08-04T03:38:35;10.35;;;2.00;;
22078;SDS011;11206;57.696;11.944;2022-08-04T03:43:47;7.93;;;1.60;;
22078;SDS011;11206;57.696;11.944;2022-08-04T03:54:26;7.80;;;1.40;;
22078;SDS011;11206;57.696;11.944;2022-08-04T03:59:48;14.35;;;2.75;;
22078;SDS011;11206;57.696;11.944;2022-08-04T04:10:02;7.53;;;1.48;;
22078;SDS011;11206;57.696;11.944;2022-08-04T04:12:50;7.45;;;1.45;;
22078;SDS011;11206;57.696;11.944;2022-08-04T04:20:31;7.57;;;1.52;;
22078;SDS011;11206;57.696;11.944;2022-08-04T04:23:10;7.28;;;1.30;;
22078;SDS011;11206;57.696;11.944;2022-08-04T04:31:14;10.88;;;1.40;;
22078;SDS011;11206;57.696;11.944;2022-08-04T04:36:35;4.45;;;1.30;;
22078;SDS011;11206;57.696;11.944;2022-08-04T04:47:26;6.47;;;1.60;;
22078;SDS011;11206;57.696;11.944;2022-08-04T04:52:49;6.90;;;1.60;;
22078;SDS011;11206;57.696;11.944;2022-08-04T04:55:20;4.75;;;1.83;;
22078;SDS011;11206;57.696;11.944;2022-08-04T04:57:47;6.88;;;1.70;;
22078;SDS011;11206;57.696;11.944;2022-08-04T05:00:15;13.70;;;1.88;;
22078;SDS011;11206;57.696;11.944;2022-08-04T05:10:38;7.95;;;1.77;;
22078;SDS011;11206;57.696;11.944;2022-08-04T05:15:42;10.05;;;1.70;;
22078;SDS011;11206;57.696;11.944;2022-08-04T05:18:10;8.77;;;2.05;;
22078;SDS011;11206;57.696;11.944;2022-08-04T05:20:38;7.07;;;1.65;;
22078;SDS011;11206;57.696;11.944;2022-08-04T05:23:10;9.20;;;1.40;;
22078;SDS011;11206;57.696;11.944;2022-08-04T05:25:39;9.38;;;1.67;;
22078;SDS011;11206;57.696;11.944;2022-08-04T05:28:11;4.80;;;1.35;;
22078;SDS011;11206;57.696;11.944;2022-08-04T05:30:42;9.30;;;1.95;;
22078;SDS011;11206;57.696;11.944;2022-08-04T05:33:16;5.28;;;1.75;;
22078;SDS011;11206;57.696;11.944;2022-08-04T05:35:44;6.90;;;1.50;;
22078;SDS011;11206;57.696;11.944;2022-08-04T05:38:13;5.75;;;1.63;;
22078;SDS011;11206;57.696;11.944;2022-08-04T05:40:40;13.05;;;1.65;;
22078;SDS011;11206;57.696;11.944;2022-08-04T05:43:07;2.85;;;0.95;;
22078;SDS011;11206;57.696;11.944;2022-08-04T05:45:34;10.00;;;1.48;;
22078;SDS011;11206;57.696;11.944;2022-08-04T05:48:04;10.15;;;1.40;;
22078;SDS011;11206;57.696;11.944;2022-08-04T05:50:31;4.80;;;1.33;;
22078;SDS011;11206;57.696;11.944;2022-08-04T05:52:58;5.07;;;1.38;;
22078;SDS011;11206;57.696;11.944;2022-08-04T05:55:26;6.80;;;1.55;;
22078;SDS011;11206;57.696;11.944;2022-08-04T05:57:52;4.45;;;1.52;;
22078;SDS011;11206;57.696;11.944;2022-08-04T06:00:19;7.03;;;1.20;;
22078;SDS011;11206;57.696;11.944;2022-08-04T06:02:46;4.65;;;1.00;;
22078;SDS011;11206;57.696;11.944;2022-08-04T06:05:14;6.88;;;1.20;;
22078;SDS011;11206;57.696;11.944;2022-08-04T06:07:42;7.28;;;1.40;;
22078;SDS011;11206;57.696;11.944;2022-08-04T06:10:09;3.42;;;1.10;;
22078;SDS011;11206;57.696;11.944;2022-08-04T06:12:37;9.07;;;1.50;;
22078;SDS011;11206;57.696;11.944;2022-08-04T06:15:03;13.52;;;1.63;;
22078;SDS011;11206;57.696;11.944;2022-08-04T06:17:41;5.57;;;1.30;;
22078;SDS011;11206;57.696;11.944;2022-08-04T06:20:11;5.55;;;1.63;;
22078;SDS011;11206;57.696;11.944;2022-08-04T06:22:40;4.38;;;0.85;;
22078;SDS011;11206;57.696;11.944;2022-08-04T06:25:07;6.53;;;1.40;;
22078;SDS011;11206;57.696;11.944;2022-08-04T06:27:34;4.78;;;1.10;;
22078;SDS011;11206;57.696;11.944;2022-08-04T06:30:01;7.10;;;1.10;;
22078;SDS011;11206;57.696;11.944;2022-08-04T06:32:28;6.18;;;1.25;;
22078;SDS011;11206;57.696;11.944;2022-08-04T06:35:04;2.97;;;0.90;;
22078;SDS011;11206;57.696;11.944;2022-08-04T06:37:31;2.30;;;0.75;;
22078;SDS011;11206;57.696;11.944;2022-08-04T06:39:59;3.13;;;1.00;;
22078;SDS011;11206;57.696;11.944;2022-08-04T06:42:26;5.68;;;1.10;;
22078;SDS011;11206;57.696;11.944;2022-08-04T06:44:53;3.85;;;1.05;;
22078;SDS011;11206;57.696;11.944;2022-08-04T06:47:20;4.93;;;0.90;;
22078;SDS011;11206;57.696;11.944;2022-08-04T06:49:47;2.60;;;0.70;;
22078;SDS011;11206;57.696;11.944;2022-08-04T06:52:14;3.58;;;0.85;;
22078;SDS011;11206;57.696;11.944;2022-08-04T06:54:44;7.28;;;1.00;;
22078;SDS011;11206;57.696;11.944;2022-08-04T06:57:12;3.92;;;1.00;;
22078;SDS011;11206;57.696;11.944;2022-08-04T06:59:40;5.30;;;0.77;;
22078;SDS011;11206;57.696;11.944;2022-08-04T07:02:06;3.28;;;0.80;;
22078;SDS011;11206;57.696;11.944;2022-08-04T07:04:34;3.50;;;0.80;;
22078;SDS011;11206;57.696;11.944;2022-08-04T07:07:00;3.97;;;0.52;;
22078;SDS011;11206;57.696;11.944;2022-08-04T07:09:26;6.75;;;0.90;;
22078;SDS011;11206;57.696;11.944;2022-08-04T07:11:53;2.92;;;0.82;;
22078;SDS011;11206;57.696;11.944;2022-08-04T07:14:19;6.45;;;0.90;;
22078;SDS011;11206;57.696;11.944;2022-08-04T07:16:46;3.55;;;0.90;;
22078;SDS011;11206;57.696;11.944;2022-08-04T07:19:13;4.20;;;1.00;;
22078;SDS011;11206;57.696;11.944;2022-08-04T07:21:39;3.72;;;1.10;;
22078;SDS011;11206;57.696;11.944;2022-08-04T07:24:06;3.05;;;0.77;;
22078;SDS011;11206;57.696;11.944;2022-08-04T07:26:32;1.98;;;0.75;;
22078;SDS011;11206;57.696;11.944;2022-08-04T07:28:59;1.65;;;0.85;;
22078;SDS011;11206;57.696;11.944;2022-08-04T07:31:25;2.75;;;0.73;;
22078;SDS011;11206;57.696;11.944;2022-08-04T07:33:52;4.18;;;1.10;;
22078;SDS011;11206;57.696;11.944;2022-08-04T07:36:19;5.72;;;0.80;;
22078;SDS011;11206;57.696;11.944;2022-08-04T07:38:45;2.20;;;0.73;;
22078;SDS011;11206;57.696;11.944;2022-08-04T07:41:11;6.82;;;0.98;;
22078;SDS011;11206;57.696;11.944;2022-08-04T07:43:37;6.47;;;0.90;;
22078;SDS011;11206;57.696;11.944;2022-08-04T07:46:04;6.53;;;1.52;;
22078;SDS011;11206;57.696;11.944;2022-08-04T07:48:30;3.08;;;0.90;;
22078;SDS011;11206;57.696;11.944;2022-08-04T07:50:56;7.70;;;0.90;;
22078;SDS011;11206;57.696;11.944;2022-08-04T07:53:23;5.30;;;0.77;;
22078;SDS011;11206;57.696;11.944;2022-08-04T07:55:51;5.03;;;0.80;;
22078;SDS011;11206;57.696;11.944;2022-08-04T07:58:18;3.25;;;0.82;;
22078;SDS011;11206;57.696;11.944;2022-08-04T08:00:44;3.75;;;1.00;;
22078;SDS011;11206;57.696;11.944;2022-08-04T08:03:10;7.50;;;0.80;;
22078;SDS011;11206;57.696;11.944;2022-08-04T08:05:38;3.70;;;0.93;;
22078;SDS011;11206;57.696;11.944;2022-08-04T08:08:05;3.20;;;0.60;;
22078;SDS011;11206;57.696;11.944;2022-08-04T08:10:31;5.10;;;0.63;;
22078;SDS011;11206;57.696;11.944;2022-08-04T08:12:57;2.70;;;0.68;;
22078;SDS011;11206;57.696;11.944;2022-08-04T08:15:23;1.92;;;0.80;;
22078;SDS011;11206;57.696;11.944;2022-08-04T08:17:50;2.45;;;0.57;;
22078;SDS011;11206;57.696;11.944;2022-08-04T08:20:17;2.85;;;0.63;;
22078;SDS011;11206;57.696;11.944;2022-08-04T08:22:43;3.45;;;0.60;;
22078;SDS011;11206;57.696;11.944;2022-08-04T08:25:10;8.13;;;0.80;;
22078;SDS011;11206;57.696;11.944;2022-08-04T08:27:36;1.83;;;0.88;;
22078;SDS011;11206;57.696;11.944;2022-08-04T08:30:06;1.13;;;0.45;;
22078;SDS011;11206;57.696;11.944;2022-08-04T08:32:33;2.47;;;0.60;;
22078;SDS011;11206;57.696;11.944;2022-08-04T08:34:59;4.85;;;1.10;;
22078;SDS011;11206;57.696;11.944;2022-08-04T08:37:39;3.22;;;0.80;;
22078;SDS011;11206;57.696;11.944;2022-08-04T08:55:41;2.42;;;0.60;;
22078;SDS011;11206;57.696;11.944;2022-08-04T09:05:50;2.28;;;0.75;;
22078;SDS011;11206;57.696;11.944;2022-08-04T09:10:49;6.20;;;0.80;;
22078;SDS011;11206;57.696;11.944;2022-08-04T09:18:37;9.27;;;1.00;;
22078;SDS011;11206;57.696;11.944;2022-08-04T09:23:48;2.13;;;0.90;;
22078;SDS011;11206;57.696;11.944;2022-08-04T09:26:20;3.65;;;0.70;;
22078;SDS011;11206;57.696;11.944;2022-08-04T09:29:07;3.10;;;0.50;;
22078;SDS011;11206;57.696;11.944;2022-08-04T09:31:56;0.82;;;0.43;;
22078;SDS011;11206;57.696;11.944;2022-08-04T09:39:45;2.25;;;0.50;;
22078;SDS011;11206;57.696;11.944;2022-08-04T09:42:22;1.48;;;0.95;;
22078;SDS011;11206;57.696;11.944;2022-08-04T09:49:54;3.40;;;0.50;;
22078;SDS011;11206;57.696;11.944;2022-08-04T09:55:10;3.15;;;1.23;;
22078;SDS011;11206;57.696;11.944;2022-08-04T10:00:16;5.30;;;0.90;;
22078;SDS011;11206;57.696;11.944;2022-08-04T10:02:49;2.00;;;0.73;;
22078;SDS011;11206;57.696;11.944;2022-08-04T10:05:21;5.78;;;0.88;;
22078;SDS011;11206;57.696;11.944;2022-08-04T10:13:02;9.18;;;0.70;;
22078;SDS011;11206;57.696;11.944;2022-08-04T10:15:33;8.20;;;1.02;;
22078;SDS011;11206;57.696;11.944;2022-08-04T10:26:10;7.00;;;1.35;;
22078;SDS011;11206;57.696;11.944;2022-08-04T10:28:55;5.88;;;0.80;;
22078;SDS011;11206;57.696;11.944;2022-08-04T10:31:27;3.67;;;1.00;;
22078;SDS011;11206;57.696;11.944;2022-08-04T10:33:57;4.65;;;0.80;;
22078;SDS011;11206;57.696;11.944;2022-08-04T10:36:26;4.40;;;0.90;;
22078;SDS011;11206;57.696;11.944;2022-08-04T10:39:06;1.77;;;0.70;;
22078;SDS011;11206;57.696;11.944;2022-08-04T10:44:32;6.90;;;0.93;;
22078;SDS011;11206;57.696;11.944;2022-08-04T10:47:03;9.23;;;1.23;;
22078;SDS011;11206;57.696;11.944;2022-08-04T10:50:05;7.10;;;1.23;;
22078;SDS011;11206;57.696;11.944;2022-08-04T10:55:08;5.57;;;0.80;;
22078;SDS011;11206;57.696;11.944;2022-08-04T10:57:54;4.72;;;0.77;;
22078;SDS011;11206;57.696;11.944;2022-08-04T11:00:25;3.25;;;1.02;;
22078;SDS011;11206;57.696;11.944;2022-08-04T11:07:51;6.68;;;0.93;;
22078;SDS011;11206;57.696;11.944;2022-08-04T11:10:22;11.68;;;1.20;;
22078;SDS011;11206;57.696;11.944;2022-08-04T11:12:51;5.53;;;1.13;;
22078;SDS011;11206;57.696;11.944;2022-08-04T11:15:24;8.70;;;1.23;;
22078;SDS011;11206;57.696;11.944;2022-08-04T11:17:54;5.97;;;0.98;;
22078;SDS011;11206;57.696;11.944;2022-08-04T11:23:09;4.80;;;1.10;;
22078;SDS011;11206;57.696;11.944;2022-08-04T11:25:54;5.50;;;0.80;;
22078;SDS011;11206;57.696;11.944;2022-08-04T11:28:38;6.53;;;0.98;;
22078;SDS011;11206;57.696;11.944;2022-08-04T11:31:11;6.88;;;1.17;;
22078;SDS011;11206;57.696;11.944;2022-08-04T11:36:14;9.13;;;0.77;;
22078;SDS011;11206;57.696;11.944;2022-08-04T11:41:17;10.80;;;1.40;;
22078;SDS011;11206;57.696;11.944;2022-08-04T11:43:50;8.43;;;1.00;;
22078;SDS011;11206;57.696;11.944;2022-08-04T11:46:37;6.82;;;0.80;;
22078;SDS011;11206;57.696;11.944;2022-08-04T11:49:06;8.02;;;1.10;;
22078;SDS011;11206;57.696;11.944;2022-08-04T11:51:33;4.68;;;0.68;;
22078;SDS011;11206;57.696;11.944;2022-08-04T11:53:59;3.63;;;0.77;;
22078;SDS011;11206;57.696;11.944;2022-08-04T11:56:26;2.83;;;0.57;;
22078;SDS011;11206;57.696;11.944;2022-08-04T11:58:53;4.55;;;0.65;;
22078;SDS011;11206;57.696;11.944;2022-08-04T12:07:08;8.13;;;0.70;;
22078;SDS011;11206;57.696;11.944;2022-08-04T12:09:43;6.20;;;0.88;;
22078;SDS011;11206;57.696;11.944;2022-08-04T12:17:32;5.78;;;0.75;;
22078;SDS011;11206;57.696;11.944;2022-08-04T12:20:02;11.88;;;1.10;;
22078;SDS011;11206;57.696;11.944;2022-08-04T12:22:31;4.10;;;0.60;;
22078;SDS011;11206;57.696;11.944;2022-08-04T12:30:01;16.27;;;1.30;;
22078;SDS011;11206;57.696;11.944;2022-08-04T12:32:29;8.07;;;1.20;;
22078;SDS011;11206;57.696;11.944;2022-08-04T12:35:07;6.53;;;0.98;;
22078;SDS011;11206;57.696;11.944;2022-08-04T12:37:40;5.30;;;0.63;;
22078;SDS011;11206;57.696;11.944;2022-08-04T12:40:12;2.58;;;0.73;;
22078;SDS011;11206;57.696;11.944;2022-08-04T12:42:41;4.63;;;1.10;;
22078;SDS011;11206;57.696;11.944;2022-08-04T12:45:09;4.05;;;0.73;;
22078;SDS011;11206;57.696;11.944;2022-08-04T12:47:36;5.68;;;0.77;;
22078;SDS011;11206;57.696;11.944;2022-08-04T12:50:03;7.32;;;0.95;;
22078;SDS011;11206;57.696;11.944;2022-08-04T12:52:30;12.85;;;1.27;;
22078;SDS011;11206;57.696;11.944;2022-08-04T12:54:56;4.05;;;0.73;;
22078;SDS011;11206;57.696;11.944;2022-08-04T12:57:22;4.72;;;0.63;;
22078;SDS011;11206;57.696;11.944;2022-08-04T12:59:49;3.08;;;0.40;;
22078;SDS011;11206;57.696;11.944;2022-08-04T13:02:17;8.10;;;1.08;;
22078;SDS011;11206;57.696;11.944;2022-08-04T13:04:44;8.20;;;0.95;;
22078;SDS011;11206;57.696;11.944;2022-08-04T13:07:14;5.95;;;0.65;;
22078;SDS011;11206;57.696;11.944;2022-08-04T13:09:40;4.55;;;0.60;;
22078;SDS011;11206;57.696;11.944;2022-08-04T13:12:11;2.05;;;0.52;;
22078;SDS011;11206;57.696;11.944;2022-08-04T13:14:39;10.32;;;0.93;;
22078;SDS011;11206;57.696;11.944;2022-08-04T13:17:07;4.45;;;0.60;;
22078;SDS011;11206;57.696;11.944;2022-08-04T13:19:33;6.10;;;0.80;;
22078;SDS011;11206;57.696;11.944;2022-08-04T13:22:00;1.60;;;0.50;;
22078;SDS011;11206;57.696;11.944;2022-08-04T13:24:27;5.07;;;1.00;;
22078;SDS011;11206;57.696;11.944;2022-08-04T13:27:03;3.80;;;0.63;;
22078;SDS011;11206;57.696;11.944;2022-08-04T13:31:59;3.83;;;0.80;;
22078;SDS011;11206;57.696;11.944;2022-08-04T13:34:26;6.05;;;0.90;;
22078;SDS011;11206;57.696;11.944;2022-08-04T13:36:53;5.20;;;0.80;;
22078;SDS011;11206;57.696;11.944;2022-08-04T13:39:20;4.95;;;1.00;;
22078;SDS011;11206;57.696;11.944;2022-08-04T13:41:50;2.30;;;0.75;;
22078;SDS011;11206;57.696;11.944;2022-08-04T13:44:21;3.70;;;0.70;;
22078;SDS011;11206;57.696;11.944;2022-08-04T13:46:57;5.18;;;0.88;;
22078;SDS011;11206;57.696;11.944;2022-08-04T13:49:24;4.90;;;0.80;;
22078;SDS011;11206;57.696;11.944;2022-08-04T13:51:54;3.05;;;0.68;;
22078;SDS011;11206;57.696;11.944;2022-08-04T13:54:20;2.05;;;0.70;;
22078;SDS011;11206;57.696;11.944;2022-08-04T13:56:54;4.55;;;1.20;;
22078;SDS011;11206;57.696;11.944;2022-08-04T13:59:22;2.72;;;0.80;;
22078;SDS011;11206;57.696;11.944;2022-08-04T14:02:01;5.78;;;0.90;;
22078;SDS011;11206;57.696;11.944;2022-08-04T14:04:28;6.82;;;0.75;;
22078;SDS011;11206;57.696;11.944;2022-08-04T14:07:28;6.05;;;1.00;;
22078;SDS011;11206;57.696;11.944;2022-08-04T14:09:47;4.85;;;1.10;;
22078;SDS011;11206;57.696;11.944;2022-08-04T14:12:14;3.30;;;0.98;;
22078;SDS011;11206;57.696;11.944;2022-08-04T14:14:45;1.23;;;0.77;;
22078;SDS011;11206;57.696;11.944;2022-08-04T14:17:12;11.32;;;1.20;;
22078;SDS011;11206;57.696;11.944;2022-08-04T14:27:48;6.95;;;1.00;;
22078;SDS011;11206;57.696;11.944;2022-08-04T14:33:20;5.30;;;0.90;;
22078;SDS011;11206;57.696;11.944;2022-08-04T14:35:39;14.05;;;1.02;;
22078;SDS011;11206;57.696;11.944;2022-08-04T14:38:09;8.77;;;0.77;;
22078;SDS011;11206;57.696;11.944;2022-08-04T14:40:36;12.45;;;1.25;;
22078;SDS011;11206;57.696;11.944;2022-08-04T14:43:02;5.55;;;1.00;;
22078;SDS011;11206;57.696;11.944;2022-08-04T14:45:30;7.75;;;0.93;;
22078;SDS011;11206;57.696;11.944;2022-08-04T14:47:56;3.78;;;0.73;;
22078;SDS011;11206;57.696;11.944;2022-08-04T14:50:33;10.00;;;0.85;;
22078;SDS011;11206;57.696;11.944;2022-08-04T14:53:18;1.17;;;0.47;;
22078;SDS011;11206;57.696;11.944;2022-08-04T14:55:46;5.10;;;1.40;;
22078;SDS011;11206;57.696;11.944;2022-08-04T14:58:16;6.72;;;1.00;;
22078;SDS011;11206;57.696;11.944;2022-08-04T15:00:43;4.50;;;0.57;;
22078;SDS011;11206;57.696;11.944;2022-08-04T15:03:10;3.17;;;0.40;;
22078;SDS011;11206;57.696;11.944;2022-08-04T15:05:36;6.25;;;0.80;;
22078;SDS011;11206;57.696;11.944;2022-08-04T15:08:03;3.15;;;0.57;;
22078;SDS011;11206;57.696;11.944;2022-08-04T15:10:30;13.93;;;0.77;;
22078;SDS011;11206;57.696;11.944;2022-08-04T15:12:56;13.52;;;1.35;;
22078;SDS011;11206;57.696;11.944;2022-08-04T15:15:22;6.43;;;0.60;;
22078;SDS011;11206;57.696;11.944;2022-08-04T15:17:49;4.57;;;0.65;;
22078;SDS011;11206;57.696;11.944;2022-08-04T15:20:16;2.55;;;0.43;;
22078;SDS011;11206;57.696;11.944;2022-08-04T15:22:42;3.05;;;0.93;;
22078;SDS011;11206;57.696;11.944;2022-08-04T15:25:08;9.93;;;0.93;;
22078;SDS011;11206;57.696;11.944;2022-08-04T15:27:35;10.98;;;0.63;;
22078;SDS011;11206;57.696;11.944;2022-08-04T15:30:04;5.90;;;0.50;;
22078;SDS011;11206;57.696;11.944;2022-08-04T15:32:31;5.25;;;0.77;;
22078;SDS011;11206;57.696;11.944;2022-08-04T15:35:03;7.30;;;0.70;;
22078;SDS011;11206;57.696;11.944;2022-08-04T15:37:36;4.47;;;0.70;;
22078;SDS011;11206;57.696;11.944;2022-08-04T15:40:13;12.38;;;0.50;;
22078;SDS011;11206;57.696;11.944;2022-08-04T15:42:45;5.07;;;0.60;;
22078;SDS011;11206;57.696;11.944;2022-08-04T15:47:38;3.88;;;0.50;;
22078;SDS011;11206;57.696;11.944;2022-08-04T15:50:06;5.40;;;0.63;;
22078;SDS011;11206;57.696;11.944;2022-08-04T15:55:29;0.00;;;0.00;;
22078;SDS011;11206;57.696;11.944;2022-08-04T15:57:56;0.00;;;0.00;;
22078;SDS011;11206;57.696;11.944;2022-08-04T16:00:25;0.00;;;0.00;;
22078;SDS011;11206;57.696;11.944;2022-08-04T16:02:51;0.00;;;0.00;;
22078;SDS011;11206;57.696;11.944;2022-08-04T16:08:29;0.00;;;0.00;;
22078;SDS011;11206;57.696;11.944;2022-08-04T16:13:09;0.00;;;0.00;;
22078;SDS011;11206;57.696;11.944;2022-08-04T16:15:45;0.00;;;0.00;;
22078;SDS011;11206;57.696;11.944;2022-08-04T16:18:18;0.00;;;0.00;;
22078;SDS011;11206;57.696;11.944;2022-08-04T16:20:44;0.00;;;0.00;;
22078;SDS011;11206;57.696;11.944;2022-08-04T16:25:46;0.00;;;0.00;;
22078;SDS011;11206;57.696;11.944;2022-08-04T16:31:09;0.00;;;0.00;;
22078;SDS011;11206;57.696;11.944;2022-08-04T16:33:37;0.00;;;0.00;;
22078;SDS011;11206;57.696;11.944;2022-08-04T16:36:04;0.00;;;0.00;;
22078;SDS011;11206;57.696;11.944;2022-08-04T16:38:31;0.00;;;0.00;;
22078;SDS011;11206;57.696;11.944;2022-08-04T16:40:59;0.00;;;0.00;;
22078;SDS011;11206;57.696;11.944;2022-08-04T16:43:30;0.00;;;0.00;;
22078;SDS011;11206;57.696;11.944;2022-08-04T16:45:56;0.00;;;0.00;;
22078;SDS011;11206;57.696;11.944;2022-08-04T16:53:15;0.00;;;0.00;;
22078;SDS011;11206;57.696;11.944;2022-08-04T16:55:46;0.00;;;0.00;;
22078;SDS011;11206;57.696;11.944;2022-08-04T16:58:13;0.00;;;0.00;;
22078;SDS011;11206;57.696;11.944;2022-08-04T17:00:39;0.00;;;0.00;;
22078;SDS011;11206;57.696;11.944;2022-08-04T17:03:06;0.00;;;0.00;;
22078;SDS011;11206;57.696;11.944;2022-08-04T17:05:32;0.00;;;0.00;;
22078;SDS011;11206;57.696;11.944;2022-08-04T17:07:59;0.00;;;0.00;;
22078;SDS011;11206;57.696;11.944;2022-08-04T17:10:36;0.00;;;0.00;;
22078;SDS011;11206;57.696;11.944;2022-08-04T17:15:48;0.00;;;0.00;;
22078;SDS011;11206;57.696;11.944;2022-08-04T17:18:16;0.00;;;0.00;;
22078;SDS011;11206;57.696;11.944;2022-08-04T17:20:42;0.00;;;0.00;;
22078;SDS011;11206;57.696;11.944;2022-08-04T17:25:56;0.00;;;0.00;;
22078;SDS011;11206;57.696;11.944;2022-08-04T17:28:23;0.00;;;0.00;;
22078;SDS011;11206;57.696;11.944;2022-08-04T17:30:50;0.00;;;0.00;;
22078;SDS011;11206;57.696;11.944;2022-08-04T17:33:17;0.00;;;0.00;;
22078;SDS011;11206;57.696;11.944;2022-08-04T17:35:44;0.00;;;0.00;;
22078;SDS011;11206;57.696;11.944;2022-08-04T17:38:10;0.00;;;0.00;;
22078;SDS011;11206;57.696;11.944;2022-08-04T17:43:36;0.00;;;0.00;;
22078;SDS011;11206;57.696;11.944;2022-08-04T17:49:21;0.00;;;0.00;;
22078;SDS011;11206;57.696;11.944;2022-08-04T17:51:56;0.00;;;0.00;;
22078;SDS011;11206;57.696;11.944;2022-08-04T17:56:55;0.00;;;0.00;;
22078;SDS011;11206;57.696;11.944;2022-08-04T17:59:28;0.00;;;0.00;;
22078;SDS011;11206;57.696;11.944;2022-08-04T18:02:01;0.00;;;0.00;;
22078;SDS011;11206;57.696;11.944;2022-08-04T18:04:28;0.00;;;0.00;;
22078;SDS011;11206;57.696;11.944;2022-08-04T18:06:56;0.00;;;0.00;;
22078;SDS011;11206;57.696;11.944;2022-08-04T18:09:23;0.00;;;0.00;;
22078;SDS011;11206;57.696;11.944;2022-08-04T18:11:53;0.00;;;0.00;;
22078;SDS011;11206;57.696;11.944;2022-08-04T18:14:19;0.00;;;0.00;;
22078;SDS011;11206;57.696;11.944;2022-08-04T18:16:45;0.00;;;0.00;;
22078;SDS011;11206;57.696;11.944;2022-08-04T18:19:13;0.00;;;0.00;;
22078;SDS011;11206;57.696;11.944;2022-08-04T18:21:42;0.00;;;0.00;;
22078;SDS011;11206;57.696;11.944;2022-08-04T18:24:12;0.00;;;0.00;;
22078;SDS011;11206;57.696;11.944;2022-08-04T18:26:38;0.00;;;0.00;;
22078;SDS011;11206;57.696;11.944;2022-08-04T18:29:05;0.00;;;0.00;;
22078;SDS011;11206;57.696;11.944;2022-08-04T18:31:32;0.00;;;0.00;;
22078;SDS011;11206;57.696;11.944;2022-08-04T18:33:59;0.00;;;0.00;;
22078;SDS011;11206;57.696;11.944;2022-08-04T18:36:25;0.00;;;0.00;;
22078;SDS011;11206;57.696;11.944;2022-08-04T18:38:52;0.00;;;0.00;;
22078;SDS011;11206;57.696;11.944;2022-08-04T18:41:18;0.00;;;0.00;;
22078;SDS011;11206;57.696;11.944;2022-08-04T18:43:44;0.08;;;0.08;;
22078;SDS011;11206;57.696;11.944;2022-08-04T18:46:10;0.00;;;0.00;;
22078;SDS011;11206;57.696;11.944;2022-08-04T18:48:36;0.00;;;0.00;;
22078;SDS011;11206;57.696;11.944;2022-08-04T18:51:02;0.00;;;0.00;;
22078;SDS011;11206;57.696;11.944;2022-08-04T18:53:28;2.55;;;1.45;;
22078;SDS011;11206;57.696;11.944;2022-08-04T18:55:55;0.00;;;0.00;;
22078;SDS011;11206;57.696;11.944;2022-08-04T18:58:21;0.00;;;0.00;;
22078;SDS011;11206;57.696;11.944;2022-08-04T19:00:47;0.00;;;0.00;;
22078;SDS011;11206;57.696;11.944;2022-08-04T19:03:13;0.00;;;0.00;;
22078;SDS011;11206;57.696;11.944;2022-08-04T19:05:39;0.00;;;0.00;;
22078;SDS011;11206;57.696;11.944;2022-08-04T19:08:05;0.00;;;0.00;;
22078;SDS011;11206;57.696;11.944;2022-08-04T19:10:31;0.00;;;0.00;;
22078;SDS011;11206;57.696;11.944;2022-08-04T19:12:57;0.00;;;0.00;;